NKS834 KFLL-MKJS
Flight info
| Callsign | NKS834 |
|---|---|
| Flight time | 1h 29m |
| Altitude | 33000 |
| Route | REGAE2 URSUS UL780 TASNO UM221 NIBEO DCT ADSEL LENAR7 |
| Aircraft | A21N/M-SDE2E3FGHIRWXY/LB1 |
Departure
| Time | 2026-05-03 21:42 |
|---|---|
| Airport | Fort Lauderdale Hollywood International Airport (KFLL) |
Arrival
| Time | 2026-05-03 23:12 |
|---|---|
| Airport | Sangster International Airport (MKJS) |
| Time | Latitude | Longitude | Altitude | Speed | Heading |
|---|---|---|---|---|---|
| 2026-05-03 20:36 | 26.06897 | -80.14171 | 21 ft | 0 kts | 328° |
| 2026-05-03 21:23 | 26.06896 | -80.14170 | 21 ft | 2 kts | 328° |
| 2026-05-03 21:23 | 26.06874 | -80.14156 | 21 ft | 4 kts | 329° |
| 2026-05-03 21:23 | 26.06851 | -80.14140 | 21 ft | 4 kts | 324° |
| 2026-05-03 21:23 | 26.06833 | -80.14120 | 21 ft | 4 kts | 291° |
| 2026-05-03 21:24 | 26.06835 | -80.14102 | 21 ft | 5 kts | 229° |
| 2026-05-03 21:24 | 26.06854 | -80.14083 | 21 ft | 5 kts | 221° |
| 2026-05-03 21:24 | 26.06857 | -80.14080 | 21 ft | 1 kts | 221° |
| 2026-05-03 21:26 | 26.06856 | -80.14080 | 21 ft | 1 kts | 221° |
| 2026-05-03 21:26 | 26.06822 | -80.14103 | 21 ft | 11 kts | 210° |
| 2026-05-03 21:26 | 26.06797 | -80.14165 | 21 ft | 7 kts | 262° |
| 2026-05-03 21:27 | 26.06786 | -80.14230 | 21 ft | 9 kts | 271° |
| 2026-05-03 21:27 | 26.06775 | -80.14303 | 21 ft | 10 kts | 256° |
| 2026-05-03 21:27 | 26.06771 | -80.14382 | 21 ft | 11 kts | 272° |
| 2026-05-03 21:27 | 26.06774 | -80.14469 | 21 ft | 12 kts | 272° |
| 2026-05-03 21:28 | 26.06769 | -80.14560 | 21 ft | 12 kts | 268° |
| 2026-05-03 21:28 | 26.06767 | -80.14657 | 21 ft | 13 kts | 269° |
| 2026-05-03 21:28 | 26.06766 | -80.14760 | 21 ft | 14 kts | 270° |
| 2026-05-03 21:28 | 26.06768 | -80.14868 | 21 ft | 14 kts | 272° |
| 2026-05-03 21:29 | 26.06769 | -80.14981 | 21 ft | 15 kts | 270° |
| 2026-05-03 21:29 | 26.06769 | -80.15099 | 21 ft | 13 kts | 252° |
| 2026-05-03 21:29 | 26.06763 | -80.15109 | 21 ft | 0 kts | 230° |
| 2026-05-03 21:29 | 26.06759 | -80.15114 | 21 ft | 4 kts | 231° |
| 2026-05-03 21:30 | 26.06711 | -80.15145 | 25 ft | 12 kts | 221° |
| 2026-05-03 21:30 | 26.06697 | -80.15265 | 23 ft | 20 kts | 266° |
| 2026-05-03 21:30 | 26.06698 | -80.15422 | 22 ft | 20 kts | 271° |
| 2026-05-03 21:30 | 26.06702 | -80.15575 | 21 ft | 11 kts | 265° |
| 2026-05-03 21:31 | 26.06698 | -80.15626 | 21 ft | 0 kts | 264° |
| 2026-05-03 21:31 | 26.06698 | -80.15627 | 21 ft | 1 kts | 264° |
| 2026-05-03 21:32 | 26.06699 | -80.15657 | 21 ft | 7 kts | 271° |
| 2026-05-03 21:32 | 26.06699 | -80.15663 | 21 ft | 0 kts | 270° |
| 2026-05-03 21:34 | 26.06699 | -80.15669 | 21 ft | 6 kts | 270° |
| 2026-05-03 21:34 | 26.06699 | -80.15713 | 21 ft | 3 kts | 269° |
| 2026-05-03 21:35 | 26.06698 | -80.15737 | 21 ft | 0 kts | 269° |
| 2026-05-03 21:35 | 26.06698 | -80.15745 | 21 ft | 3 kts | 269° |
| 2026-05-03 21:36 | 26.06697 | -80.15783 | 21 ft | 7 kts | 268° |
| 2026-05-03 21:36 | 26.06697 | -80.15790 | 21 ft | 0 kts | 268° |
| 2026-05-03 21:37 | 26.06694 | -80.15800 | 21 ft | 4 kts | 247° |
| 2026-05-03 21:38 | 26.06686 | -80.15812 | 21 ft | 0 kts | 224° |
| 2026-05-03 21:41 | 26.06683 | -80.15814 | 21 ft | 2 kts | 217° |
| 2026-05-03 21:41 | 26.06638 | -80.15825 | 22 ft | 15 kts | 176° |
| 2026-05-03 21:41 | 26.06590 | -80.15767 | 24 ft | 6 kts | 88° |
| 2026-05-03 21:41 | 26.06589 | -80.15754 | 25 ft | 2 kts | 93° |
| 2026-05-03 21:42 | 26.06587 | -80.15635 | 28 ft | 43 kts | 90° |
| 2026-05-03 21:42 | 26.06581 | -80.15008 | 24 ft | 118 kts | 90° |
| 2026-05-03 21:42 | 26.06575 | -80.13883 | 145 ft | 162 kts | 91° |
| 2026-05-03 21:42 | 26.06556 | -80.12619 | 717 ft | 167 kts | 92° |
| 2026-05-03 21:43 | 26.06599 | -80.11295 | 1283 ft | 177 kts | 88° |
| 2026-05-03 21:43 | 26.06630 | -80.09875 | 1755 ft | 190 kts | 90° |
| 2026-05-03 21:43 | 26.06646 | -80.08363 | 2287 ft | 201 kts | 90° |
| 2026-05-03 21:43 | 26.06661 | -80.06761 | 2829 ft | 213 kts | 90° |
| 2026-05-03 21:44 | 26.06674 | -80.05046 | 3296 ft | 232 kts | 90° |
| 2026-05-03 21:44 | 26.06687 | -80.03173 | 3749 ft | 253 kts | 90° |
| 2026-05-03 21:44 | 26.06700 | -80.01134 | 3990 ft | 270 kts | 90° |
| 2026-05-03 21:44 | 26.06698 | -79.99043 | 4023 ft | 271 kts | 91° |
| 2026-05-03 21:45 | 26.06683 | -79.97659 | 4020 ft | 271 kts | 91° |
| 2026-05-03 21:45 | 26.06659 | -79.95561 | 4009 ft | 271 kts | 91° |
| 2026-05-03 21:45 | 26.06637 | -79.93467 | 4003 ft | 271 kts | 91° |
| 2026-05-03 21:45 | 26.06615 | -79.91371 | 3994 ft | 271 kts | 91° |
| 2026-05-03 21:46 | 26.06595 | -79.89276 | 3991 ft | 271 kts | 91° |
| 2026-05-03 21:46 | 26.06575 | -79.87182 | 3992 ft | 271 kts | 91° |
| 2026-05-03 21:46 | 26.06554 | -79.85086 | 3991 ft | 271 kts | 91° |
| 2026-05-03 21:46 | 26.06514 | -79.82995 | 3989 ft | 271 kts | 94° |
| 2026-05-03 21:47 | 26.06253 | -79.80923 | 3989 ft | 270 kts | 101° |
| 2026-05-03 21:47 | 26.05913 | -79.78865 | 3990 ft | 271 kts | 101° |
| 2026-05-03 21:47 | 26.05576 | -79.76810 | 3989 ft | 270 kts | 101° |
| 2026-05-03 21:47 | 26.05247 | -79.74754 | 4256 ft | 270 kts | 100° |
| 2026-05-03 21:48 | 26.04919 | -79.72682 | 5039 ft | 274 kts | 100° |
| 2026-05-03 21:48 | 26.04591 | -79.70593 | 5840 ft | 276 kts | 100° |
| 2026-05-03 21:48 | 26.04259 | -79.68473 | 6607 ft | 279 kts | 100° |
| 2026-05-03 21:48 | 26.03924 | -79.66331 | 7321 ft | 282 kts | 100° |
| 2026-05-03 21:49 | 26.03538 | -79.64180 | 8004 ft | 286 kts | 104° |
| 2026-05-03 21:49 | 26.03035 | -79.62027 | 8659 ft | 289 kts | 105° |
| 2026-05-03 21:49 | 26.02510 | -79.59862 | 9294 ft | 292 kts | 105° |
| 2026-05-03 21:49 | 26.01976 | -79.57670 | 9901 ft | 295 kts | 105° |
| 2026-05-03 21:50 | 26.01426 | -79.55438 | 10360 ft | 304 kts | 107° |
| 2026-05-03 21:50 | 26.00797 | -79.53141 | 10654 ft | 318 kts | 108° |
| 2026-05-03 21:50 | 25.99863 | -79.50872 | 10902 ft | 330 kts | 123° |
| 2026-05-03 21:50 | 25.98327 | -79.48921 | 11127 ft | 342 kts | 142° |
| 2026-05-03 21:51 | 25.96212 | -79.47655 | 11343 ft | 353 kts | 162° |
| 2026-05-03 21:51 | 25.93782 | -79.47057 | 11588 ft | 363 kts | 170° |
| 2026-05-03 21:51 | 25.91252 | -79.46582 | 11825 ft | 374 kts | 171° |
| 2026-05-03 21:51 | 25.88691 | -79.46091 | 12083 ft | 382 kts | 171° |
| 2026-05-03 21:52 | 25.86039 | -79.45837 | 12486 ft | 385 kts | 181° |
| 2026-05-03 21:52 | 25.83374 | -79.46174 | 12878 ft | 388 kts | 193° |
| 2026-05-03 21:52 | 25.80818 | -79.47153 | 12999 ft | 390 kts | 206° |
| 2026-05-03 21:52 | 25.78498 | -79.48686 | 13023 ft | 390 kts | 213° |
| 2026-05-03 21:53 | 25.76244 | -79.50365 | 13012 ft | 390 kts | 214° |
| 2026-05-03 21:53 | 25.73990 | -79.52039 | 13001 ft | 389 kts | 214° |
| 2026-05-03 21:53 | 25.71734 | -79.53696 | 13011 ft | 390 kts | 213° |
| 2026-05-03 21:53 | 25.69483 | -79.55335 | 13011 ft | 389 kts | 213° |
| 2026-05-03 21:54 | 25.67238 | -79.57048 | 13007 ft | 389 kts | 217° |
| 2026-05-03 21:54 | 25.65106 | -79.58903 | 13005 ft | 389 kts | 218° |
| 2026-05-03 21:54 | 25.62989 | -79.60775 | 13003 ft | 389 kts | 218° |
| 2026-05-03 21:54 | 25.60871 | -79.62642 | 12996 ft | 389 kts | 218° |
| 2026-05-03 21:55 | 25.58751 | -79.64505 | 13001 ft | 389 kts | 218° |
| 2026-05-03 21:55 | 25.56627 | -79.66367 | 13009 ft | 389 kts | 218° |
| 2026-05-03 21:55 | 25.54502 | -79.68229 | 13002 ft | 389 kts | 218° |
| 2026-05-03 21:55 | 25.52376 | -79.70090 | 12989 ft | 389 kts | 218° |
| 2026-05-03 21:56 | 25.50251 | -79.71947 | 12982 ft | 389 kts | 218° |
| 2026-05-03 21:56 | 25.48127 | -79.73801 | 12978 ft | 389 kts | 218° |
| 2026-05-03 21:56 | 25.45998 | -79.75661 | 12975 ft | 389 kts | 218° |
| 2026-05-03 21:56 | 25.43873 | -79.77515 | 12979 ft | 389 kts | 218° |
| 2026-05-03 21:57 | 25.41746 | -79.79365 | 12978 ft | 389 kts | 217° |
| 2026-05-03 21:57 | 25.39490 | -79.81025 | 12973 ft | 389 kts | 209° |
| 2026-05-03 21:57 | 25.37117 | -79.82462 | 12976 ft | 389 kts | 206° |
| 2026-05-03 21:57 | 25.34565 | -79.83427 | 12970 ft | 390 kts | 190° |
| 2026-05-03 21:58 | 25.31858 | -79.83503 | 12973 ft | 390 kts | 173° |
| 2026-05-03 21:58 | 25.29216 | -79.82829 | 12984 ft | 391 kts | 164° |
| 2026-05-03 21:58 | 25.26612 | -79.81972 | 12983 ft | 391 kts | 163° |
| 2026-05-03 21:58 | 25.24002 | -79.81107 | 12976 ft | 391 kts | 163° |
| 2026-05-03 21:59 | 25.21395 | -79.80258 | 12973 ft | 391 kts | 164° |
| 2026-05-03 21:59 | 25.18785 | -79.79419 | 12972 ft | 391 kts | 164° |
| 2026-05-03 21:59 | 25.16172 | -79.78584 | 12972 ft | 391 kts | 164° |
| 2026-05-03 21:59 | 25.13561 | -79.77748 | 12971 ft | 391 kts | 164° |
| 2026-05-03 22:00 | 25.10951 | -79.76914 | 12971 ft | 391 kts | 164° |
| 2026-05-03 22:00 | 25.08341 | -79.76080 | 12971 ft | 391 kts | 164° |
| 2026-05-03 22:00 | 25.05728 | -79.75246 | 12971 ft | 391 kts | 164° |
| 2026-05-03 22:00 | 25.03115 | -79.74413 | 12971 ft | 391 kts | 164° |
| 2026-05-03 22:01 | 25.00504 | -79.73581 | 12971 ft | 391 kts | 164° |
| 2026-05-03 22:01 | 24.97894 | -79.72751 | 12972 ft | 391 kts | 164° |
| 2026-05-03 22:01 | 24.95329 | -79.71935 | 13125 ft | 391 kts | 164° |
| 2026-05-03 22:01 | 24.92661 | -79.71086 | 13533 ft | 394 kts | 164° |
| 2026-05-03 22:02 | 24.90026 | -79.70215 | 13958 ft | 396 kts | 161° |
| 2026-05-03 22:02 | 24.87527 | -79.68917 | 14352 ft | 399 kts | 149° |
| 2026-05-03 22:02 | 24.85175 | -79.67290 | 14727 ft | 401 kts | 147° |
| 2026-05-03 22:02 | 24.82824 | -79.65606 | 15088 ft | 404 kts | 147° |
| 2026-05-03 22:03 | 24.80464 | -79.63919 | 15423 ft | 406 kts | 147° |
| 2026-05-03 22:03 | 24.78083 | -79.62229 | 15745 ft | 408 kts | 147° |
| 2026-05-03 22:03 | 24.75685 | -79.60535 | 16061 ft | 411 kts | 148° |
| 2026-05-03 22:03 | 24.73269 | -79.58833 | 16363 ft | 413 kts | 148° |
| 2026-05-03 22:04 | 24.70845 | -79.57130 | 16648 ft | 415 kts | 148° |
| 2026-05-03 22:04 | 24.68408 | -79.55419 | 16925 ft | 417 kts | 148° |
| 2026-05-03 22:04 | 24.65956 | -79.53696 | 17193 ft | 419 kts | 148° |
| 2026-05-03 22:04 | 24.63495 | -79.51968 | 17449 ft | 421 kts | 148° |
| 2026-05-03 22:05 | 24.61021 | -79.50236 | 17692 ft | 422 kts | 148° |
| 2026-05-03 22:05 | 24.58529 | -79.48489 | 17923 ft | 424 kts | 148° |
| 2026-05-03 22:05 | 24.56046 | -79.46748 | 18145 ft | 426 kts | 148° |
| 2026-05-03 22:05 | 24.53542 | -79.44994 | 18356 ft | 428 kts | 148° |
| 2026-05-03 22:06 | 24.51028 | -79.43232 | 18562 ft | 429 kts | 148° |
| 2026-05-03 22:06 | 24.48510 | -79.41466 | 18755 ft | 431 kts | 148° |
| 2026-05-03 22:06 | 24.45977 | -79.39693 | 18947 ft | 432 kts | 148° |
| 2026-05-03 22:06 | 24.43446 | -79.37920 | 19130 ft | 433 kts | 148° |
| 2026-05-03 22:07 | 24.40930 | -79.36161 | 19303 ft | 435 kts | 148° |
| 2026-05-03 22:07 | 24.38377 | -79.34375 | 19474 ft | 436 kts | 148° |
| 2026-05-03 22:07 | 24.35788 | -79.32565 | 19637 ft | 437 kts | 148° |
| 2026-05-03 22:07 | 24.33218 | -79.30770 | 19785 ft | 439 kts | 148° |
| 2026-05-03 22:08 | 24.30630 | -79.28965 | 19939 ft | 440 kts | 148° |
| 2026-05-03 22:08 | 24.28060 | -79.27145 | 20085 ft | 441 kts | 147° |
| 2026-05-03 22:08 | 24.25492 | -79.25291 | 20219 ft | 442 kts | 147° |
| 2026-05-03 22:08 | 24.22958 | -79.23460 | 20353 ft | 443 kts | 147° |
| 2026-05-03 22:09 | 24.20352 | -79.21584 | 20487 ft | 444 kts | 147° |
| 2026-05-03 22:09 | 24.17798 | -79.19749 | 20605 ft | 445 kts | 147° |
| 2026-05-03 22:09 | 24.15205 | -79.17890 | 20722 ft | 446 kts | 147° |
| 2026-05-03 22:10 | 24.10011 | -79.14167 | 20941 ft | 447 kts | 147° |
| 2026-05-03 22:10 | 24.07398 | -79.12295 | 21046 ft | 448 kts | 147° |
| 2026-05-03 22:10 | 24.04789 | -79.10430 | 21191 ft | 448 kts | 147° |
| 2026-05-03 22:10 | 24.02097 | -79.08744 | 21401 ft | 445 kts | 155° |
| 2026-05-03 22:11 | 23.99202 | -79.07593 | 21636 ft | 442 kts | 166° |
| 2026-05-03 22:11 | 23.96178 | -79.07070 | 21881 ft | 438 kts | 177° |
| 2026-05-03 22:11 | 23.93143 | -79.07059 | 22134 ft | 435 kts | 181° |
| 2026-05-03 22:11 | 23.90129 | -79.07161 | 22382 ft | 433 kts | 182° |
| 2026-05-03 22:12 | 23.87126 | -79.07261 | 22631 ft | 430 kts | 182° |
| 2026-05-03 22:12 | 23.84142 | -79.07342 | 22880 ft | 428 kts | 181° |
| 2026-05-03 22:12 | 23.81175 | -79.07414 | 23129 ft | 425 kts | 181° |
| 2026-05-03 22:12 | 23.78230 | -79.07481 | 23375 ft | 423 kts | 181° |
| 2026-05-03 22:13 | 23.75287 | -79.07547 | 23524 ft | 423 kts | 181° |
| 2026-05-03 22:13 | 23.72337 | -79.07613 | 23616 ft | 425 kts | 181° |
| 2026-05-03 22:13 | 23.69378 | -79.07678 | 23689 ft | 426 kts | 181° |
| 2026-05-03 22:13 | 23.66406 | -79.07744 | 23757 ft | 428 kts | 181° |
| 2026-05-03 22:14 | 23.63418 | -79.07812 | 23823 ft | 430 kts | 181° |
| 2026-05-03 22:14 | 23.60424 | -79.07880 | 23886 ft | 431 kts | 181° |
| 2026-05-03 22:14 | 23.57418 | -79.07947 | 23948 ft | 433 kts | 181° |
| 2026-05-03 22:14 | 23.54399 | -79.08014 | 24010 ft | 434 kts | 181° |
| 2026-05-03 22:15 | 23.51377 | -79.08081 | 24072 ft | 435 kts | 181° |
| 2026-05-03 22:15 | 23.48347 | -79.08148 | 24133 ft | 436 kts | 181° |
| 2026-05-03 22:15 | 23.45309 | -79.08216 | 24190 ft | 437 kts | 181° |
| 2026-05-03 22:15 | 23.42269 | -79.08284 | 24247 ft | 438 kts | 181° |
| 2026-05-03 22:16 | 23.39218 | -79.08352 | 24301 ft | 439 kts | 181° |
| 2026-05-03 22:16 | 23.36166 | -79.08419 | 24357 ft | 439 kts | 181° |
| 2026-05-03 22:16 | 23.33106 | -79.08487 | 24414 ft | 440 kts | 181° |
| 2026-05-03 22:16 | 23.30046 | -79.08554 | 24470 ft | 440 kts | 181° |
| 2026-05-03 22:17 | 23.26980 | -79.08622 | 24525 ft | 441 kts | 181° |
| 2026-05-03 22:17 | 23.23915 | -79.08691 | 24581 ft | 441 kts | 181° |
| 2026-05-03 22:17 | 23.20843 | -79.08760 | 24638 ft | 442 kts | 181° |
| 2026-05-03 22:17 | 23.17769 | -79.08827 | 24690 ft | 442 kts | 181° |
| 2026-05-03 22:18 | 23.14698 | -79.08895 | 24747 ft | 442 kts | 181° |
| 2026-05-03 22:18 | 23.11621 | -79.08964 | 24803 ft | 442 kts | 181° |
| 2026-05-03 22:18 | 23.08546 | -79.09031 | 24857 ft | 442 kts | 181° |
| 2026-05-03 22:18 | 23.05467 | -79.09100 | 24909 ft | 442 kts | 181° |
| 2026-05-03 22:19 | 23.02391 | -79.09170 | 24960 ft | 443 kts | 181° |
| 2026-05-03 22:19 | 22.99312 | -79.09232 | 25008 ft | 443 kts | 181° |
| 2026-05-03 22:19 | 22.96228 | -79.09293 | 25057 ft | 443 kts | 181° |
| 2026-05-03 22:19 | 22.93150 | -79.09358 | 25109 ft | 443 kts | 181° |
| 2026-05-03 22:20 | 22.90068 | -79.09427 | 25158 ft | 443 kts | 181° |
| 2026-05-03 22:20 | 22.86988 | -79.09495 | 25204 ft | 443 kts | 181° |
| 2026-05-03 22:20 | 22.83910 | -79.09560 | 25251 ft | 443 kts | 181° |
| 2026-05-03 22:20 | 22.80830 | -79.09631 | 25301 ft | 443 kts | 181° |
| 2026-05-03 22:21 | 22.77750 | -79.09700 | 25354 ft | 442 kts | 181° |
| 2026-05-03 22:21 | 22.74674 | -79.09767 | 25404 ft | 442 kts | 181° |
| 2026-05-03 22:21 | 22.71593 | -79.09837 | 25451 ft | 442 kts | 181° |
| 2026-05-03 22:21 | 22.68518 | -79.09905 | 25499 ft | 442 kts | 181° |
| 2026-05-03 22:22 | 22.65446 | -79.09972 | 25545 ft | 442 kts | 181° |
| 2026-05-03 22:22 | 22.62372 | -79.10042 | 25590 ft | 442 kts | 181° |
| 2026-05-03 22:22 | 22.59300 | -79.10106 | 25635 ft | 442 kts | 181° |
| 2026-05-03 22:22 | 22.56225 | -79.10162 | 25679 ft | 441 kts | 181° |
| 2026-05-03 22:23 | 22.53170 | -79.10219 | 25993 ft | 433 kts | 181° |
| 2026-05-03 22:23 | 22.50231 | -79.10279 | 26793 ft | 412 kts | 181° |
| 2026-05-03 22:23 | 22.47434 | -79.10343 | 27625 ft | 392 kts | 181° |
| 2026-05-03 22:23 | 22.44746 | -79.10409 | 28035 ft | 383 kts | 181° |
| 2026-05-03 22:24 | 22.42086 | -79.10475 | 28146 ft | 382 kts | 181° |
| 2026-05-03 22:24 | 22.36801 | -79.10601 | 28218 ft | 383 kts | 181° |
| 2026-05-03 22:25 | 22.31477 | -79.10712 | 28292 ft | 383 kts | 181° |
| 2026-05-03 22:25 | 22.26148 | -79.10821 | 28364 ft | 383 kts | 181° |
| 2026-05-03 22:26 | 22.20851 | -79.10941 | 28588 ft | 375 kts | 181° |
| 2026-05-03 22:26 | 22.18274 | -79.10999 | 28805 ft | 367 kts | 181° |
| 2026-05-03 22:26 | 22.15742 | -79.11055 | 28997 ft | 360 kts | 181° |
| 2026-05-03 22:27 | 22.10783 | -79.10725 | 29021 ft | 357 kts | 169° |
| 2026-05-03 22:27 | 22.05942 | -79.09624 | 29004 ft | 354 kts | 168° |
| 2026-05-03 22:28 | 22.01144 | -79.08533 | 29001 ft | 351 kts | 168° |
| 2026-05-03 22:28 | 21.96498 | -79.07497 | 29000 ft | 347 kts | 169° |
| 2026-05-03 22:29 | 21.91795 | -79.06462 | 29001 ft | 344 kts | 169° |
| 2026-05-03 22:29 | 21.87915 | -79.05606 | 29000 ft | 340 kts | 169° |
| 2026-05-03 22:30 | 21.82470 | -79.04402 | 29004 ft | 343 kts | 168° |
| 2026-05-03 22:30 | 21.78573 | -79.03541 | 29003 ft | 345 kts | 169° |
| 2026-05-03 22:31 | 21.73854 | -79.02499 | 29000 ft | 345 kts | 168° |
| 2026-05-03 22:31 | 21.69172 | -79.01461 | 28999 ft | 341 kts | 169° |
| 2026-05-03 22:32 | 21.64529 | -79.00441 | 29003 ft | 342 kts | 169° |
| 2026-05-03 22:32 | 21.59850 | -78.99411 | 29003 ft | 345 kts | 169° |
| 2026-05-03 22:33 | 21.55192 | -78.98380 | 28999 ft | 341 kts | 169° |
| 2026-05-03 22:33 | 21.50523 | -78.97353 | 29003 ft | 342 kts | 169° |
| 2026-05-03 22:34 | 21.45844 | -78.96324 | 29003 ft | 345 kts | 169° |
| 2026-05-03 22:34 | 21.41157 | -78.95294 | 28998 ft | 342 kts | 169° |
| 2026-05-03 22:35 | 21.36512 | -78.94270 | 29001 ft | 341 kts | 169° |
| 2026-05-03 22:35 | 21.31857 | -78.93248 | 29004 ft | 343 kts | 169° |
| 2026-05-03 22:36 | 21.27184 | -78.92222 | 28999 ft | 340 kts | 169° |
| 2026-05-03 22:36 | 21.22546 | -78.91205 | 29003 ft | 341 kts | 169° |
| 2026-05-03 22:37 | 21.17907 | -78.90189 | 29001 ft | 340 kts | 169° |
| 2026-05-03 22:37 | 21.13252 | -78.89170 | 29003 ft | 342 kts | 169° |
| 2026-05-03 22:38 | 21.08570 | -78.88144 | 29001 ft | 343 kts | 169° |
| 2026-05-03 22:38 | 21.03921 | -78.87126 | 28999 ft | 340 kts | 169° |
| 2026-05-03 22:39 | 20.99276 | -78.86111 | 29003 ft | 342 kts | 169° |
| 2026-05-03 22:39 | 20.94633 | -78.85095 | 29000 ft | 340 kts | 169° |
| 2026-05-03 22:40 | 20.89989 | -78.84084 | 29003 ft | 342 kts | 169° |
| 2026-05-03 22:40 | 20.85332 | -78.83067 | 29000 ft | 340 kts | 169° |
| 2026-05-03 22:41 | 20.80693 | -78.82053 | 29003 ft | 342 kts | 169° |
| 2026-05-03 22:41 | 20.76014 | -78.81035 | 29003 ft | 345 kts | 169° |
| 2026-05-03 22:42 | 20.71306 | -78.80010 | 29000 ft | 344 kts | 169° |
| 2026-05-03 22:42 | 20.66670 | -78.79003 | 28999 ft | 340 kts | 169° |
| 2026-05-03 22:43 | 20.62040 | -78.77994 | 29003 ft | 340 kts | 169° |
| 2026-05-03 22:43 | 20.57383 | -78.76981 | 29003 ft | 343 kts | 169° |
| 2026-05-03 22:44 | 20.52697 | -78.75964 | 29000 ft | 342 kts | 169° |
| 2026-05-03 22:44 | 20.48050 | -78.74954 | 29000 ft | 339 kts | 169° |
| 2026-05-03 22:45 | 20.43423 | -78.73948 | 29003 ft | 340 kts | 169° |
| 2026-05-03 22:45 | 20.38791 | -78.72943 | 29003 ft | 341 kts | 169° |
| 2026-05-03 22:46 | 20.34118 | -78.71929 | 29003 ft | 344 kts | 169° |
| 2026-05-03 22:46 | 20.29449 | -78.70918 | 28998 ft | 340 kts | 169° |
| 2026-05-03 22:47 | 20.24823 | -78.69914 | 29002 ft | 340 kts | 169° |
| 2026-05-03 22:47 | 20.20163 | -78.68905 | 29004 ft | 343 kts | 169° |
| 2026-05-03 22:48 | 20.15463 | -78.67894 | 29001 ft | 345 kts | 169° |
| 2026-05-03 22:48 | 20.10803 | -78.66890 | 28999 ft | 341 kts | 169° |
| 2026-05-03 22:49 | 20.06157 | -78.65886 | 29001 ft | 338 kts | 169° |
| 2026-05-03 22:49 | 20.01529 | -78.64888 | 29003 ft | 340 kts | 169° |
| 2026-05-03 22:50 | 19.96864 | -78.63912 | 29004 ft | 344 kts | 169° |
| 2026-05-03 22:50 | 19.92146 | -78.62962 | 29000 ft | 344 kts | 169° |
| 2026-05-03 22:51 | 19.87474 | -78.62021 | 28999 ft | 340 kts | 169° |
| 2026-05-03 22:51 | 19.82831 | -78.61088 | 28943 ft | 343 kts | 169° |
| 2026-05-03 22:51 | 19.80453 | -78.60609 | 28634 ft | 352 kts | 169° |
| 2026-05-03 22:52 | 19.78021 | -78.60118 | 28389 ft | 360 kts | 169° |
| 2026-05-03 22:52 | 19.75539 | -78.59615 | 28149 ft | 367 kts | 169° |
| 2026-05-03 22:52 | 19.73000 | -78.59106 | 27911 ft | 375 kts | 169° |
| 2026-05-03 22:52 | 19.70415 | -78.58590 | 27673 ft | 382 kts | 169° |
| 2026-05-03 22:53 | 19.67774 | -78.58062 | 27434 ft | 390 kts | 169° |
| 2026-05-03 22:53 | 19.65084 | -78.57522 | 27194 ft | 397 kts | 169° |
| 2026-05-03 22:53 | 19.62341 | -78.56969 | 26953 ft | 405 kts | 169° |
| 2026-05-03 22:53 | 19.59553 | -78.56406 | 26711 ft | 412 kts | 169° |
| 2026-05-03 22:54 | 19.56713 | -78.55831 | 26468 ft | 419 kts | 169° |
| 2026-05-03 22:54 | 19.53827 | -78.55249 | 26224 ft | 426 kts | 169° |
| 2026-05-03 22:54 | 19.50888 | -78.54660 | 25949 ft | 434 kts | 169° |
| 2026-05-03 22:54 | 19.47896 | -78.54055 | 25405 ft | 440 kts | 169° |
| 2026-05-03 22:55 | 19.44905 | -78.53453 | 24731 ft | 436 kts | 169° |
| 2026-05-03 22:55 | 19.41939 | -78.52860 | 24017 ft | 432 kts | 169° |
| 2026-05-03 22:55 | 19.38990 | -78.52266 | 23303 ft | 429 kts | 169° |
| 2026-05-03 22:55 | 19.36066 | -78.51675 | 22620 ft | 426 kts | 169° |
| 2026-05-03 22:56 | 19.33164 | -78.51091 | 21925 ft | 424 kts | 169° |
| 2026-05-03 22:56 | 19.30275 | -78.50514 | 21229 ft | 421 kts | 169° |
| 2026-05-03 22:56 | 19.27408 | -78.49940 | 20562 ft | 417 kts | 169° |
| 2026-05-03 22:56 | 19.24570 | -78.49376 | 19913 ft | 414 kts | 169° |
| 2026-05-03 22:57 | 19.21752 | -78.48818 | 19292 ft | 410 kts | 169° |
| 2026-05-03 22:57 | 19.18969 | -78.48260 | 18703 ft | 406 kts | 169° |
| 2026-05-03 22:57 | 19.16240 | -78.47713 | 18132 ft | 403 kts | 169° |
| 2026-05-03 22:57 | 19.13496 | -78.47164 | 17582 ft | 400 kts | 169° |
| 2026-05-03 22:58 | 19.10772 | -78.46621 | 17021 ft | 397 kts | 169° |
| 2026-05-03 22:58 | 19.08067 | -78.46080 | 16446 ft | 395 kts | 169° |
| 2026-05-03 22:58 | 19.05368 | -78.45539 | 15899 ft | 393 kts | 169° |
| 2026-05-03 22:58 | 19.02693 | -78.45004 | 15372 ft | 390 kts | 169° |
| 2026-05-03 22:59 | 19.00035 | -78.44473 | 14834 ft | 388 kts | 169° |
| 2026-05-03 22:59 | 18.97391 | -78.43930 | 14280 ft | 386 kts | 167° |
| 2026-05-03 22:59 | 18.94892 | -78.42936 | 13732 ft | 385 kts | 150° |
| 2026-05-03 22:59 | 18.92827 | -78.41176 | 13212 ft | 383 kts | 134° |
| 2026-05-03 23:00 | 18.91069 | -78.39076 | 12701 ft | 380 kts | 131° |
| 2026-05-03 23:00 | 18.89341 | -78.36981 | 12190 ft | 378 kts | 132° |
| 2026-05-03 23:00 | 18.87589 | -78.34917 | 11657 ft | 376 kts | 133° |
| 2026-05-03 23:00 | 18.85838 | -78.32897 | 11209 ft | 368 kts | 133° |
| 2026-05-03 23:01 | 18.84135 | -78.30952 | 10945 ft | 353 kts | 133° |
| 2026-05-03 23:01 | 18.82500 | -78.29093 | 10740 ft | 338 kts | 133° |
| 2026-05-03 23:01 | 18.80931 | -78.27312 | 10558 ft | 323 kts | 133° |
| 2026-05-03 23:01 | 18.79439 | -78.25610 | 10391 ft | 309 kts | 133° |
| 2026-05-03 23:02 | 18.77997 | -78.23974 | 10069 ft | 302 kts | 133° |
| 2026-05-03 23:02 | 18.76572 | -78.22355 | 9576 ft | 301 kts | 133° |
| 2026-05-03 23:02 | 18.75148 | -78.20741 | 9102 ft | 299 kts | 133° |
| 2026-05-03 23:02 | 18.73741 | -78.19148 | 8679 ft | 296 kts | 133° |
| 2026-05-03 23:03 | 18.72342 | -78.17564 | 8250 ft | 293 kts | 133° |
| 2026-05-03 23:03 | 18.70958 | -78.15997 | 7846 ft | 290 kts | 133° |
| 2026-05-03 23:03 | 18.69593 | -78.14455 | 7463 ft | 286 kts | 133° |
| 2026-05-03 23:03 | 18.68245 | -78.12928 | 7197 ft | 284 kts | 133° |
| 2026-05-03 23:04 | 18.66844 | -78.11488 | 6831 ft | 279 kts | 148° |
| 2026-05-03 23:04 | 18.65047 | -78.10746 | 6527 ft | 277 kts | 163° |
| 2026-05-03 23:04 | 18.63417 | -78.09724 | 6122 ft | 275 kts | 135° |
| 2026-05-03 23:04 | 18.61973 | -78.08412 | 5722 ft | 274 kts | 153° |
| 2026-05-03 23:05 | 18.60150 | -78.07929 | 5332 ft | 272 kts | 183° |
| 2026-05-03 23:05 | 18.58359 | -78.08473 | 4991 ft | 269 kts | 207° |
| 2026-05-03 23:05 | 18.56702 | -78.09366 | 4648 ft | 268 kts | 205° |
| 2026-05-03 23:05 | 18.54970 | -78.10095 | 4288 ft | 267 kts | 198° |
| 2026-05-03 23:06 | 18.53175 | -78.10593 | 3928 ft | 267 kts | 191° |
| 2026-05-03 23:06 | 18.51335 | -78.10866 | 3568 ft | 267 kts | 185° |
| 2026-05-03 23:06 | 18.49483 | -78.10919 | 3211 ft | 266 kts | 179° |
| 2026-05-03 23:06 | 18.47668 | -78.10761 | 3028 ft | 255 kts | 172° |
| 2026-05-03 23:07 | 18.45979 | -78.10431 | 2997 ft | 239 kts | 167° |
| 2026-05-03 23:07 | 18.44434 | -78.09966 | 2990 ft | 227 kts | 162° |
| 2026-05-03 23:07 | 18.42964 | -78.09362 | 3006 ft | 227 kts | 156° |
| 2026-05-03 23:07 | 18.41592 | -78.08554 | 3010 ft | 227 kts | 136° |
| 2026-05-03 23:08 | 18.40854 | -78.07176 | 3002 ft | 209 kts | 97° |
| 2026-05-03 23:08 | 18.41129 | -78.05791 | 2984 ft | 194 kts | 56° |
| 2026-05-03 23:08 | 18.42116 | -78.04883 | 2811 ft | 186 kts | 33° |
| 2026-05-03 23:08 | 18.43192 | -78.04177 | 2573 ft | 178 kts | 31° |
| 2026-05-03 23:09 | 18.44220 | -78.03507 | 2344 ft | 171 kts | 32° |
| 2026-05-03 23:09 | 18.45138 | -78.02715 | 2140 ft | 171 kts | 47° |
| 2026-05-03 23:09 | 18.45816 | -78.01706 | 1989 ft | 169 kts | 60° |
| 2026-05-03 23:09 | 18.46343 | -78.00602 | 1768 ft | 163 kts | 65° |
| 2026-05-03 23:10 | 18.46823 | -77.99500 | 1531 ft | 167 kts | 65° |
| 2026-05-03 23:10 | 18.47307 | -77.98386 | 1291 ft | 167 kts | 66° |
| 2026-05-03 23:10 | 18.47788 | -77.97276 | 1059 ft | 166 kts | 66° |
| 2026-05-03 23:10 | 18.48268 | -77.96170 | 833 ft | 166 kts | 66° |
| 2026-05-03 23:11 | 18.48734 | -77.95093 | 603 ft | 151 kts | 66° |
| 2026-05-03 23:11 | 18.49101 | -77.94242 | 467 ft | 143 kts | 66° |
| 2026-05-03 23:11 | 18.49512 | -77.93292 | 263 ft | 143 kts | 65° |
| 2026-05-03 23:11 | 18.49931 | -77.92346 | 83 ft | 142 kts | 66° |
| 2026-05-03 23:12 | 18.50314 | -77.91458 | 62 ft | 114 kts | 67° |
| 2026-05-03 23:12 | 18.50500 | -77.91042 | 62 ft | 73 kts | 63° |
| 2026-05-03 23:12 | 18.50619 | -77.90749 | 62 ft | 14 kts | 76° |
| 2026-05-03 23:12 | 18.50636 | -77.90710 | 63 ft | 18 kts | 63° |
| 2026-05-03 23:13 | 18.50696 | -77.90584 | 63 ft | 20 kts | 65° |
| 2026-05-03 23:13 | 18.50756 | -77.90446 | 63 ft | 21 kts | 65° |
| 2026-05-03 23:13 | 18.50839 | -77.90258 | 63 ft | 18 kts | 72° |
| 2026-05-03 23:13 | 18.50815 | -77.90177 | 63 ft | 19 kts | 158° |
| 2026-05-03 23:14 | 18.50690 | -77.90218 | 63 ft | 21 kts | 216° |
| 2026-05-03 23:14 | 18.50606 | -77.90343 | 62 ft | 22 kts | 248° |
| 2026-05-03 23:14 | 18.50550 | -77.90496 | 62 ft | 23 kts | 246° |
| 2026-05-03 23:14 | 18.50487 | -77.90651 | 62 ft | 23 kts | 244° |
| 2026-05-03 23:15 | 18.50417 | -77.90807 | 62 ft | 24 kts | 245° |
| 2026-05-03 23:15 | 18.50348 | -77.90970 | 62 ft | 25 kts | 245° |
| 2026-05-03 23:15 | 18.50276 | -77.91133 | 62 ft | 19 kts | 248° |
| 2026-05-03 23:15 | 18.50226 | -77.91250 | 62 ft | 18 kts | 243° |
| 2026-05-03 23:16 | 18.50214 | -77.91275 | 62 ft | 2 kts | 243° |
| 2026-05-03 23:16 | 18.50208 | -77.91289 | 62 ft | 3 kts | 243° |
| 2026-05-03 23:16 | 18.50198 | -77.91309 | 62 ft | 4 kts | 237° |
| 2026-05-03 23:16 | 18.50173 | -77.91321 | 62 ft | 5 kts | 179° |
| 2026-05-03 23:17 | 18.50140 | -77.91313 | 62 ft | 6 kts | 193° |
| 2026-05-03 23:17 | 18.50110 | -77.91342 | 62 ft | 7 kts | 243° |
| 2026-05-03 23:17 | 18.50074 | -77.91372 | 62 ft | 8 kts | 185° |
| 2026-05-03 23:17 | 18.50021 | -77.91372 | 62 ft | 7 kts | 182° |
| 2026-05-03 23:18 | 18.50006 | -77.91372 | 62 ft | 1 kts | 175° |
| 2026-05-03 23:18 | 18.50004 | -77.91372 | 62 ft | 0 kts | 184° |